Pagina principale
METAR-TAF:

METAR-TAF

Aeroporti :

Aeroporto Internazionale Sir Seretse Khama

Gaborone, Botswana

latitudine: 24-13S, longitudine: 025-55E, altezza: 1005 m

Osservazione

Il bollettino è stato emesso 2 ore e 11 minuti fa, alle 14:00 UTC
Vento 10 kt da nord-est
Temperature 21°C
Umidità 21%
Pressione 1028 hPa
Visibilità 10 km o più
nessuna nube inferiore a 1500 m e nessun cumulonembo

METAR: FBSK 231400Z 05010KT CAVOK 21/M02 Q1028 NOSIG

Ora: 18:11 (16:11 UTC)

Previsione

Il bollettino è stato emesso 7 ore e 11 minuti fa, alle 09:00 UTC
Previsione valida dal 23 alle 12 UTC al 24 alle 18 UTC
Vento 10 kt da est
Visibilità 10 km o più
nessuna nube inferiore a 1500 m e nessun cumulonembo

TAF: FBSK 230900Z 2312/2418 08010KT CAVOK

Osservazioni e previsioni meteorologiche di più di 4000 aeroporti (messaggi METAR e TAF).

Le stazioni disponibili sono rappresentate dai dischi gialli e rossi sulla carta.

Puntare il mouse per vedere il nome della stazione.

Clicca sopra per visualizzare le osservazioni e previsioni meteorologiche.

Per cambiare la mappa : fare clic sui pulsanti verdi con una croce nera per ingrandire, il pulsante verde con un trattino per diminuire, o sulla freccia verde per le mappe adiacenti.


METAR-TAF: